Time;durP1;ratioP1;P1;durP2;ratioP2;P2;SDS_P1;SDS_P2;PMS_P1;PMS_P2;Temp;Humidity;BMP_temperature;BMP_pressure;BME280_temperature;BME280_humidity;BME280_pressure;Samples;Min_cycle;Max_cycle;Signal;HPM_P1;HPM_P2
2023/09/12 00:01:05;;;;;;;8.63;5.50;;;;;;;;;;5054534;28;20129;-56
2023/09/12 00:03:32;;;;;;;11.02;6.70;;;;;;;;;;5054400;28;20051;-57
2023/09/12 00:05:59;;;;;;;8.52;5.47;;;;;;;;;;5054142;28;20040;-56
2023/09/12 00:08:25;;;;;;;9.88;6.05;;;;;;;;;;5054110;28;20025;-55
2023/09/12 00:11:10;;;;;;;8.30;6.15;;;;;;;;;;5053270;28;20029;-53
2023/09/12 00:13:37;;;;;;;9.00;6.35;;;;;;;;;;5053663;28;20045;-58
2023/09/12 00:16:03;;;;;;;9.88;6.47;;;;;;;;;;5052226;28;20377;-57
2023/09/12 00:18:28;;;;;;;9.55;6.68;;;;;;;;;;5052855;28;20211;-56
2023/09/12 00:20:54;;;;;;;10.90;6.53;;;;;;;;;;5053454;28;20104;-56
2023/09/12 00:23:21;;;;;;;9.13;6.43;;;;;;;;;;5054012;28;20029;-56
2023/09/12 00:25:46;;;;;;;9.48;6.95;;;;;;;;;;5052757;28;20044;-55
2023/09/12 00:28:12;;;;;;;12.55;7.38;;;;;;;;;;5053624;28;20497;-57
2023/09/12 00:30:37;;;;;;;9.88;7.07;;;;;;;;;;5053296;28;20103;-56
2023/09/12 00:33:03;;;;;;;10.68;6.97;;;;;;;;;;5053543;28;20116;-57
2023/09/12 00:35:28;;;;;;;11.75;6.97;;;;;;;;;;5053409;28;20032;-55
2023/09/12 00:37:54;;;;;;;11.18;7.35;;;;;;;;;;5053243;28;20104;-57
2023/09/12 00:40:19;;;;;;;9.00;7.15;;;;;;;;;;5054156;28;20078;-56
2023/09/12 00:42:44;;;;;;;10.68;7.57;;;;;;;;;;5051823;28;20040;-54
2023/09/12 00:45:10;;;;;;;10.85;7.28;;;;;;;;;;5053503;28;20110;-55
2023/09/12 00:47:36;;;;;;;10.50;7.45;;;;;;;;;;5053005;28;20450;-57
2023/09/12 00:50:04;;;;;;;12.20;7.35;;;;;;;;;;5053502;28;20095;-54
2023/09/12 00:52:30;;;;;;;10.50;7.20;;;;;;;;;;5053411;28;20033;-53
2023/09/12 00:54:56;;;;;;;10.48;6.93;;;;;;;;;;5052773;28;20029;-57
2023/09/12 00:57:22;;;;;;;9.52;7.20;;;;;;;;;;5053441;28;20444;-53
2023/09/12 00:59:49;;;;;;;11.00;7.45;;;;;;;;;;5052422;28;20064;-56
2023/09/12 01:02:14;;;;;;;13.15;8.13;;;;;;;;;;5053336;28;20028;-54
2023/09/12 01:04:41;;;;;;;10.73;8.43;;;;;;;;;;5052531;28;20029;-55
2023/09/12 01:07:06;;;;;;;12.90;9.18;;;;;;;;;;5052866;28;20025;-57
2023/09/12 01:09:33;;;;;;;12.52;9.07;;;;;;;;;;5053158;28;20483;-56
2023/09/12 01:12:01;;;;;;;16.63;9.85;;;;;;;;;;5052593;28;20024;-57
2023/09/12 01:14:27;;;;;;;13.95;10.00;;;;;;;;;;5051789;28;20043;-57
2023/09/12 01:16:52;;;;;;;19.25;12.15;;;;;;;;;;5051807;28;20045;-55
2023/09/12 01:19:19;;;;;;;19.17;12.25;;;;;;;;;;5051661;28;20036;-52
2023/09/12 01:22:10;;;;;;;19.58;12.35;;;;;;;;;;5052200;28;20035;-56
2023/09/12 01:25:21;;;;;;;17.80;13.00;;;;;;;;;;5052456;28;20055;-58
2023/09/12 01:27:51;;;;;;;20.55;13.90;;;;;;;;;;5051044;28;20036;-55
2023/09/12 01:30:20;;;;;;;20.38;14.10;;;;;;;;;;5052745;28;20041;-57
2023/09/12 01:32:49;;;;;;;19.35;14.10;;;;;;;;;;5051842;28;20371;-57
2023/09/12 01:35:15;;;;;;;23.80;14.27;;;;;;;;;;5052496;28;20074;-57
2023/09/12 01:37:40;;;;;;;19.45;14.18;;;;;;;;;;5052115;28;20107;-56
2023/09/12 01:40:10;;;;;;;19.88;14.48;;;;;;;;;;5052469;28;20138;-55
2023/09/12 01:42:39;;;;;;;22.73;15.00;;;;;;;;;;5052478;28;20044;-56
2023/09/12 01:45:06;;;;;;;23.08;14.60;;;;;;;;;;5052555;28;20470;-55
2023/09/12 01:47:34;;;;;;;21.50;15.30;;;;;;;;;;5052395;28;20025;-57
2023/09/12 01:50:00;;;;;;;21.88;15.77;;;;;;;;;;5051774;28;20120;-55
2023/09/12 01:52:27;;;;;;;24.20;16.17;;;;;;;;;;5052630;28;20025;-53
2023/09/12 01:54:53;;;;;;;24.73;15.57;;;;;;;;;;5050442;28;20043;-59
2023/09/12 01:57:22;;;;;;;26.58;16.08;;;;;;;;;;5032314;28;20107;-56
2023/09/12 01:59:51;;;;;;;25.05;15.70;;;;;;;;;;5031530;28;20480;-57
2023/09/12 02:02:17;;;;;;;20.00;14.55;;;;;;;;;;5031758;28;20029;-55
2023/09/12 02:05:09;;;;;;;24.75;14.90;;;;;;;;;;5031733;28;20484;-57
2023/09/12 02:07:37;;;;;;;22.05;14.88;;;;;;;;;;5032315;28;20480;-54
2023/09/12 02:10:04;;;;;;;23.55;14.75;;;;;;;;;;5031666;28;20461;-56
2023/09/12 02:12:29;;;;;;;24.52;15.45;;;;;;;;;;5032248;28;20079;-53
2023/09/12 02:14:55;;;;;;;22.70;15.32;;;;;;;;;;5031688;28;20389;-54
2023/09/12 02:17:20;;;;;;;20.85;14.90;;;;;;;;;;5031941;28;20049;-55
2023/09/12 02:19:47;;;;;;;19.05;14.10;;;;;;;;;;5031533;28;20056;-54
2023/09/12 02:22:13;;;;;;;20.73;13.95;;;;;;;;;;5032289;28;20033;-54
2023/09/12 02:24:38;;;;;;;22.63;14.48;;;;;;;;;;5030802;28;20033;-55
2023/09/12 02:27:04;;;;;;;21.15;15.20;;;;;;;;;;5030987;28;20128;-57
2023/09/12 02:29:30;;;;;;;24.17;14.18;;;;;;;;;;5030853;28;20373;-56
2023/09/12 02:31:56;;;;;;;23.92;14.90;;;;;;;;;;5029881;28;20038;-57
2023/09/12 02:34:21;;;;;;;22.98;15.57;;;;;;;;;;5032460;28;20044;-56
2023/09/12 02:36:47;;;;;;;25.98;15.63;;;;;;;;;;5031087;28;20034;-55
2023/09/12 02:39:12;;;;;;;24.85;16.00;;;;;;;;;;5031813;28;20382;-57
2023/09/12 02:41:37;;;;;;;27.92;17.20;;;;;;;;;;5031572;28;20025;-52
2023/09/12 02:44:03;;;;;;;31.23;18.67;;;;;;;;;;5031162;28;20042;-54
2023/09/12 02:46:28;;;;;;;31.73;19.50;;;;;;;;;;5031897;28;20040;-54
2023/09/12 02:48:54;;;;;;;30.27;19.60;;;;;;;;;;5031312;28;20101;-55
2023/09/12 02:51:19;;;;;;;32.85;19.65;;;;;;;;;;5031946;28;20068;-54
2023/09/12 02:53:44;;;;;;;39.85;20.30;;;;;;;;;;5030956;28;20029;-55
2023/09/12 02:56:10;;;;;;;30.70;19.20;;;;;;;;;;5031454;28;20057;-54
2023/09/12 02:58:35;;;;;;;37.10;21.48;;;;;;;;;;5031823;28;20037;-56
2023/09/12 03:01:03;;;;;;;35.85;22.23;;;;;;;;;;5030933;28;20261;-55
2023/09/12 03:03:28;;;;;;;34.78;21.45;;;;;;;;;;5031818;28;20060;-54
2023/09/12 03:06:02;;;;;;;41.45;22.65;;;;;;;;;;5030809;28;20072;-56
2023/09/12 03:08:30;;;;;;;34.33;21.10;;;;;;;;;;5031723;28;20044;-52
2023/09/12 03:10:56;;;;;;;44.60;23.48;;;;;;;;;;5031145;28;20029;-53
2023/09/12 03:13:24;;;;;;;44.50;22.55;;;;;;;;;;5032456;28;20066;-54
2023/09/12 03:15:49;;;;;;;37.63;22.05;;;;;;;;;;5033715;28;20136;-53
2023/09/12 03:18:14;;;;;;;43.38;24.75;;;;;;;;;;5035015;28;20165;-54
2023/09/12 03:20:40;;;;;;;37.70;22.55;;;;;;;;;;5035078;28;20087;-58
2023/09/12 03:23:05;;;;;;;40.42;24.17;;;;;;;;;;5034862;28;20029;-55
2023/09/12 03:25:36;;;;;;;52.75;27.00;;;;;;;;;;5035205;28;20386;-55
2023/09/12 03:28:02;;;;;;;53.58;26.70;;;;;;;;;;5034532;28;20034;-57
2023/09/12 03:30:28;;;;;;;53.08;25.92;;;;;;;;;;5034934;28;20044;-58
2023/09/12 03:32:53;;;;;;;50.08;26.60;;;;;;;;;;5034499;28;20103;-57
2023/09/12 03:35:18;;;;;;;49.08;26.45;;;;;;;;;;5035121;28;20026;-59
2023/09/12 03:37:44;;;;;;;47.35;25.67;;;;;;;;;;5034143;28;20061;-60
2023/09/12 03:40:11;;;;;;;53.30;25.58;;;;;;;;;;5033687;28;20033;-58
2023/09/12 03:42:36;;;;;;;52.25;26.23;;;;;;;;;;5034986;28;20026;-57
2023/09/12 03:45:03;;;;;;;51.72;26.23;;;;;;;;;;5034189;28;20052;-56
2023/09/12 03:47:28;;;;;;;50.80;26.10;;;;;;;;;;5034613;28;20025;-57
2023/09/12 03:49:54;;;;;;;54.22;26.02;;;;;;;;;;5033798;28;20388;-57
2023/09/12 03:52:19;;;;;;;52.85;26.90;;;;;;;;;;5034581;28;20032;-55
2023/09/12 03:54:44;;;;;;;57.40;26.80;;;;;;;;;;5034513;28;20449;-58
2023/09/12 03:57:10;;;;;;;48.83;25.98;;;;;;;;;;5033915;28;20029;-57
2023/09/12 03:59:35;;;;;;;47.35;24.48;;;;;;;;;;5034547;28;20029;-57
2023/09/12 04:02:05;;;;;;;50.40;25.48;;;;;;;;;;5034065;28;20088;-56
2023/09/12 04:04:30;;;;;;;53.03;27.13;;;;;;;;;;5034576;28;20092;-58
2023/09/12 04:06:56;;;;;;;53.90;25.08;;;;;;;;;;5033896;28;20377;-58
2023/09/12 04:09:21;;;;;;;54.85;26.20;;;;;;;;;;5034611;28;20026;-58
2023/09/12 04:11:46;;;;;;;61.50;26.17;;;;;;;;;;5033575;28;20025;-58
2023/09/12 04:14:14;;;;;;;51.00;24.75;;;;;;;;;;5034809;28;20527;-57
2023/09/12 04:16:39;;;;;;;49.58;24.88;;;;;;;;;;5034159;28;20046;-58
2023/09/12 04:19:04;;;;;;;48.42;24.80;;;;;;;;;;5033821;28;20053;-57
2023/09/12 04:21:30;;;;;;;49.15;23.77;;;;;;;;;;5034071;28;20026;-58
2023/09/12 04:23:55;;;;;;;48.28;24.15;;;;;;;;;;5033632;28;20116;-57
2023/09/12 04:26:21;;;;;;;45.55;23.40;;;;;;;;;;5034040;28;20029;-57
2023/09/12 04:28:47;;;;;;;46.28;24.15;;;;;;;;;;5034032;28;20385;-57
2023/09/12 04:31:12;;;;;;;51.72;23.70;;;;;;;;;;5034436;28;20036;-58
2023/09/12 04:33:38;;;;;;;49.60;24.10;;;;;;;;;;5033815;28;20029;-57
2023/09/12 04:36:03;;;;;;;45.85;22.63;;;;;;;;;;5033369;28;20032;-58
2023/09/12 04:38:29;;;;;;;48.90;23.95;;;;;;;;;;5033980;28;20025;-57
2023/09/12 04:40:56;;;;;;;43.47;22.17;;;;;;;;;;5048741;28;20112;-57
2023/09/12 04:43:21;;;;;;;47.80;22.40;;;;;;;;;;5032603;28;20081;-58
2023/09/12 04:45:48;;;;;;;40.65;22.67;;;;;;;;;;5033844;28;20034;-58
2023/09/12 04:48:13;;;;;;;48.88;22.88;;;;;;;;;;5033517;28;20450;-58
2023/09/12 04:50:42;;;;;;;45.35;23.95;;;;;;;;;;5033733;28;20033;-58
2023/09/12 04:53:08;;;;;;;46.53;22.73;;;;;;;;;;5033132;28;20095;-59
2023/09/12 04:55:38;;;;;;;50.63;23.50;;;;;;;;;;5033560;28;20489;-60
2023/09/12 04:58:05;;;;;;;56.55;24.40;;;;;;;;;;5032506;28;20061;-59
2023/09/12 05:00:31;;;;;;;49.08;23.85;;;;;;;;;;5033401;28;20044;-59
2023/09/12 05:02:56;;;;;;;50.45;24.90;;;;;;;;;;5033269;28;20029;-60
2023/09/12 05:05:22;;;;;;;52.83;25.10;;;;;;;;;;5033552;28;20386;-60
2023/09/12 05:07:47;;;;;;;53.05;25.15;;;;;;;;;;5048747;28;20033;-59
2023/09/12 05:10:13;;;;;;;54.60;24.83;;;;;;;;;;5032868;28;20029;-58
2023/09/12 05:12:38;;;;;;;53.15;25.17;;;;;;;;;;5032064;28;20053;-60
2023/09/12 05:15:04;;;;;;;55.50;24.95;;;;;;;;;;5032465;28;20033;-60
2023/09/12 05:17:30;;;;;;;51.55;24.23;;;;;;;;;;5033251;28;20382;-60
2023/09/12 05:19:55;;;;;;;51.60;23.50;;;;;;;;;;5031015;28;20112;-60
2023/09/12 05:22:21;;;;;;;47.28;22.92;;;;;;;;;;5033187;28;20374;-59
2023/09/12 05:24:46;;;;;;;51.47;22.63;;;;;;;;;;5033017;28;20100;-60
2023/09/12 05:27:12;;;;;;;51.13;23.02;;;;;;;;;;5031920;28;20533;-60
2023/09/12 05:29:37;;;;;;;45.65;22.48;;;;;;;;;;5048236;28;20489;-58
2023/09/12 05:32:04;;;;;;;51.55;23.92;;;;;;;;;;5032306;28;20036;-59
2023/09/12 05:34:29;;;;;;;44.88;22.13;;;;;;;;;;5031689;28;20060;-60
2023/09/12 05:36:56;;;;;;;48.28;21.17;;;;;;;;;;5030400;28;20029;-60
2023/09/12 05:39:22;;;;;;;45.28;23.58;;;;;;;;;;5032556;28;20037;-60
2023/09/12 05:41:49;;;;;;;50.40;24.35;;;;;;;;;;5033155;28;20467;-60
2023/09/12 05:44:18;;;;;;;47.15;24.23;;;;;;;;;;5032108;28;20026;-60
2023/09/12 05:46:47;;;;;;;51.22;24.45;;;;;;;;;;5032315;28;20021;-59
2023/09/12 05:49:18;;;;;;;48.47;24.45;;;;;;;;;;5031465;28;20041;-60
2023/09/12 05:51:44;;;;;;;47.35;24.58;;;;;;;;;;5032709;28;20029;-59
2023/09/12 05:54:10;;;;;;;62.30;26.20;;;;;;;;;;5030803;28;20500;-58
2023/09/12 05:56:35;;;;;;;66.45;25.65;;;;;;;;;;5032581;28;20029;-59
2023/09/12 05:59:03;;;;;;;61.58;25.17;;;;;;;;;;5031747;28;20037;-57
2023/09/12 06:01:28;;;;;;;59.15;26.13;;;;;;;;;;5031888;28;20033;-59
2023/09/12 06:03:54;;;;;;;57.00;24.23;;;;;;;;;;5031761;28;20075;-58
2023/09/12 06:06:19;;;;;;;40.97;21.73;;;;;;;;;;5032257;28;20087;-56
2023/09/12 06:08:44;;;;;;;52.67;23.10;;;;;;;;;;5032131;28;20072;-58
2023/09/12 06:11:10;;;;;;;52.30;22.90;;;;;;;;;;5032083;28;20025;-57
2023/09/12 06:13:37;;;;;;;45.63;21.35;;;;;;;;;;5032423;28;20044;-57
2023/09/12 06:16:03;;;;;;;57.95;23.65;;;;;;;;;;5031383;28;20077;-57
2023/09/12 06:18:31;;;;;;;48.75;24.15;;;;;;;;;;5031894;28;20025;-58
2023/09/12 06:20:57;;;;;;;52.38;23.63;;;;;;;;;;5031854;28;20480;-60
2023/09/12 06:23:23;;;;;;;50.80;22.70;;;;;;;;;;5032193;28;20034;-58
2023/09/12 06:25:50;;;;;;;53.00;24.15;;;;;;;;;;5032077;28;20401;-58
2023/09/12 06:28:28;;;;;;;50.33;24.25;;;;;;;;;;5031523;28;20029;-58
2023/09/12 06:30:54;;;;;;;49.58;23.63;;;;;;;;;;5032303;28;20030;-57
2023/09/12 06:33:20;;;;;;;52.90;24.08;;;;;;;;;;5032230;28;20033;-57
2023/09/12 06:35:52;;;;;;;52.75;24.13;;;;;;;;;;5031047;28;20037;-58
2023/09/12 06:38:21;;;;;;;45.17;23.08;;;;;;;;;;5031418;28;20095;-57
2023/09/12 06:40:47;;;;;;;41.60;22.80;;;;;;;;;;5030817;28;20473;-56
2023/09/12 06:43:13;;;;;;;41.92;23.08;;;;;;;;;;5031208;28;20079;-57
2023/09/12 06:45:40;;;;;;;41.20;21.40;;;;;;;;;;5031984;28;20026;-57
2023/09/12 06:48:06;;;;;;;34.40;17.65;;;;;;;;;;5031478;28;20033;-56
2023/09/12 06:50:31;;;;;;;42.05;22.42;;;;;;;;;;5036087;28;20026;-55
2023/09/12 06:52:57;;;;;;;51.92;25.08;;;;;;;;;;5035734;28;20403;-60
2023/09/12 06:55:22;;;;;;;57.08;24.88;;;;;;;;;;5034700;28;20033;-60
2023/09/12 06:57:48;;;;;;;62.72;26.98;;;;;;;;;;5035915;28;20059;-60
2023/09/12 07:00:14;;;;;;;55.38;26.55;;;;;;;;;;5035008;28;20124;-60
2023/09/12 07:02:39;;;;;;;62.30;27.52;;;;;;;;;;5035805;28;20110;-59
2023/09/12 07:05:05;;;;;;;61.97;27.13;;;;;;;;;;5034989;28;20354;-59
2023/09/12 07:07:30;;;;;;;69.55;28.90;;;;;;;;;;5035767;28;20025;-58
2023/09/12 07:09:56;;;;;;;68.05;27.88;;;;;;;;;;5035464;28;20452;-58
2023/09/12 07:12:22;;;;;;;57.35;27.00;;;;;;;;;;5035672;28;20091;-59
2023/09/12 07:14:48;;;;;;;78.55;29.73;;;;;;;;;;5050854;28;20041;-61
2023/09/12 07:17:13;;;;;;;77.88;29.58;;;;;;;;;;5034888;28;20049;-61
2023/09/12 07:19:39;;;;;;;69.70;28.60;;;;;;;;;;5034729;28;20099;-60
2023/09/12 07:22:04;;;;;;;62.92;28.45;;;;;;;;;;5034765;28;20478;-60
2023/09/12 07:24:30;;;;;;;62.13;28.30;;;;;;;;;;5035109;28;20029;-58
2023/09/12 07:26:57;;;;;;;68.28;28.58;;;;;;;;;;5035420;28;20038;-58
2023/09/12 07:29:23;;;;;;;67.53;27.20;;;;;;;;;;5035046;28;20057;-58
2023/09/12 07:31:53;;;;;;;70.78;28.20;;;;;;;;;;5035161;28;20080;-58
2023/09/12 07:34:18;;;;;;;90.07;29.00;;;;;;;;;;5034412;28;20036;-58
2023/09/12 07:36:44;;;;;;;71.60;27.52;;;;;;;;;;5050694;28;20026;-58
2023/09/12 07:39:10;;;;;;;65.38;27.50;;;;;;;;;;5033186;28;20389;-58
2023/09/12 07:41:36;;;;;;;68.10;27.00;;;;;;;;;;5034984;28;20500;-59
2023/09/12 07:44:04;;;;;;;69.47;27.77;;;;;;;;;;5034081;28;20033;-59
2023/09/12 07:46:30;;;;;;;89.93;29.48;;;;;;;;;;5034998;28;20056;-58
2023/09/12 07:48:55;;;;;;;81.28;28.05;;;;;;;;;;5034492;28;20029;-60
2023/09/12 07:51:22;;;;;;;75.85;27.65;;;;;;;;;;5033995;28;20022;-59
2023/09/12 07:53:48;;;;;;;68.55;27.35;;;;;;;;;;5034839;28;20037;-59
2023/09/12 07:56:13;;;;;;;63.35;27.77;;;;;;;;;;5034176;28;20386;-59
2023/09/12 07:58:39;;;;;;;73.53;27.85;;;;;;;;;;5034503;28;20025;-59
2023/09/12 08:01:09;;;;;;;82.97;28.23;;;;;;;;;;5033334;28;20075;-59
2023/09/12 08:03:36;;;;;;;62.85;25.25;;;;;;;;;;5034687;28;20026;-59
2023/09/12 08:06:01;;;;;;;57.00;23.80;;;;;;;;;;5034074;28;20041;-60
2023/09/12 08:08:27;;;;;;;44.55;21.65;;;;;;;;;;5033196;28;20033;-60
2023/09/12 08:10:52;;;;;;;37.85;19.13;;;;;;;;;;5034851;28;20030;-59
2023/09/12 08:13:17;;;;;;;43.28;20.52;;;;;;;;;;5033953;28;20052;-59
2023/09/12 08:15:43;;;;;;;47.22;21.17;;;;;;;;;;5032911;28;20397;-59
2023/09/12 08:18:10;;;;;;;44.78;20.70;;;;;;;;;;5033571;28;20083;-60
2023/09/12 08:20:35;;;;;;;45.72;21.02;;;;;;;;;;5034284;28;20029;-60
2023/09/12 08:23:01;;;;;;;56.47;22.95;;;;;;;;;;5033662;28;20115;-61
2023/09/12 08:25:27;;;;;;;53.88;23.38;;;;;;;;;;5034393;28;20061;-60
2023/09/12 08:27:52;;;;;;;51.55;23.08;;;;;;;;;;5034274;28;20040;-60
2023/09/12 08:30:17;;;;;;;45.83;22.48;;;;;;;;;;5033646;28;20432;-60
2023/09/12 08:32:46;;;;;;;40.15;22.20;;;;;;;;;;5033001;28;20029;-60
2023/09/12 08:35:12;;;;;;;36.65;21.33;;;;;;;;;;5033467;28;20041;-60
2023/09/12 08:37:41;;;;;;;33.85;20.00;;;;;;;;;;5034068;28;20025;-60
2023/09/12 08:40:08;;;;;;;42.47;20.42;;;;;;;;;;5032123;28;20460;-60
2023/09/12 08:42:40;;;;;;;34.33;20.38;;;;;;;;;;5034207;28;20056;-60
2023/09/12 08:45:17;;;;;;;30.48;18.42;;;;;;;;;;5033469;28;20029;-60
2023/09/12 08:47:44;;;;;;;26.40;16.70;;;;;;;;;;5033802;28;20031;-60
2023/09/12 08:50:16;;;;;;;26.63;17.10;;;;;;;;;;5032931;28;20069;-61
2023/09/12 08:52:42;;;;;;;22.77;16.52;;;;;;;;;;5033605;28;20026;-60
2023/09/12 08:55:09;;;;;;;24.02;16.38;;;;;;;;;;5032888;28;20099;-60
2023/09/12 08:57:37;;;;;;;25.25;15.65;;;;;;;;;;5033757;28;20051;-61
2023/09/12 09:00:14;;;;;;;23.67;15.45;;;;;;;;;;5033350;28;20033;-60
2023/09/12 09:02:40;;;;;;;27.58;15.23;;;;;;;;;;5033666;28;20029;-61
2023/09/12 09:05:07;;;;;;;22.52;14.98;;;;;;;;;;5032899;28;20029;-60
2023/09/12 09:07:35;;;;;;;20.95;14.18;;;;;;;;;;5033447;28;20045;-61
2023/09/12 09:10:06;;;;;;;18.48;12.70;;;;;;;;;;5033215;28;20021;-60
2023/09/12 09:12:33;;;;;;;15.48;12.23;;;;;;;;;;5032257;28;20078;-60
2023/09/12 09:14:59;;;;;;;15.45;11.75;;;;;;;;;;5032043;28;20033;-61
2023/09/12 09:17:25;;;;;;;14.27;10.80;;;;;;;;;;5032977;28;20401;-62
2023/09/12 09:19:51;;;;;;;14.07;11.25;;;;;;;;;;5032904;28;20148;-61
2023/09/12 09:22:16;;;;;;;17.92;12.95;;;;;;;;;;5032659;28;20220;-61
2023/09/12 09:24:42;;;;;;;15.07;12.15;;;;;;;;;;5033067;28;20029;-61
2023/09/12 09:27:07;;;;;;;17.65;12.40;;;;;;;;;;5032678;28;20029;-61
2023/09/12 09:29:46;;;;;;;15.40;12.55;;;;;;;;;;5032438;28;20037;-61
2023/09/12 09:32:21;;;;;;;17.92;14.48;;;;;;;;;;5032545;28;20083;-61
2023/09/12 09:34:47;;;;;;;20.70;15.48;;;;;;;;;;5033057;28;20037;-61
2023/09/12 09:37:12;;;;;;;18.52;14.35;;;;;;;;;;5032132;28;20031;-60
2023/09/12 09:39:37;;;;;;;19.17;14.15;;;;;;;;;;5032378;28;20041;-59
2023/09/12 09:42:03;;;;;;;18.73;15.40;;;;;;;;;;5031686;28;20075;-61
2023/09/12 09:44:30;;;;;;;16.85;14.35;;;;;;;;;;5031727;28;20116;-61
2023/09/12 09:47:04;;;;;;;17.58;14.75;;;;;;;;;;5032597;28;20029;-59
2023/09/12 09:49:34;;;;;;;17.52;13.07;;;;;;;;;;5032123;28;20568;-59
2023/09/12 09:52:02;;;;;;;17.67;12.75;;;;;;;;;;5032763;28;20068;-59
2023/09/12 09:54:28;;;;;;;15.63;12.65;;;;;;;;;;5031725;28;20083;-58
2023/09/12 09:56:55;;;;;;;14.38;12.10;;;;;;;;;;5032648;28;20025;-58
2023/09/12 09:59:23;;;;;;;14.40;12.90;;;;;;;;;;5032023;28;20129;-58
2023/09/12 10:01:50;;;;;;;14.05;12.57;;;;;;;;;;5032684;28;20126;-57
2023/09/12 10:04:16;;;;;;;13.85;12.43;;;;;;;;;;5031959;28;20029;-58
2023/09/12 10:06:46;;;;;;;13.88;12.07;;;;;;;;;;5032251;28;20026;-56
2023/09/12 10:09:13;;;;;;;14.68;12.23;;;;;;;;;;5031894;28;20029;-56
2023/09/12 10:11:43;;;;;;;13.75;12.35;;;;;;;;;;5032023;28;20505;-55
2023/09/12 10:14:11;;;;;;;15.52;12.90;;;;;;;;;;5030518;28;20090;-56
2023/09/12 10:16:45;;;;;;;14.15;12.60;;;;;;;;;;5032372;28;20064;-56
2023/09/12 10:19:16;;;;;;;13.98;12.57;;;;;;;;;;5031909;28;20029;-56
2023/09/12 10:22:11;;;;;;;14.85;13.35;;;;;;;;;;5032511;28;20057;-56
2023/09/12 10:24:38;;;;;;;14.05;12.57;;;;;;;;;;5031269;28;20042;-57
2023/09/12 10:27:05;;;;;;;13.82;11.98;;;;;;;;;;5032051;28;20025;-56
2023/09/12 10:29:31;;;;;;;13.50;11.60;;;;;;;;;;5031521;28;20116;-57
2023/09/12 10:31:57;;;;;;;13.35;10.70;;;;;;;;;;5032155;28;20104;-56
2023/09/12 10:34:25;;;;;;;12.43;11.13;;;;;;;;;;5030671;28;20037;-56
2023/09/12 10:36:51;;;;;;;11.77;10.23;;;;;;;;;;5032164;28;20025;-55
2023/09/12 10:39:19;;;;;;;11.25;10.00;;;;;;;;;;5031540;28;20072;-56
2023/09/12 10:41:46;;;;;;;11.60;9.45;;;;;;;;;;5031853;28;20037;-55
2023/09/12 10:44:15;;;;;;;10.63;9.52;;;;;;;;;;5030194;28;20113;-56
2023/09/12 10:46:42;;;;;;;10.90;9.55;;;;;;;;;;5032210;28;20029;-58
2023/09/12 10:49:08;;;;;;;10.27;9.15;;;;;;;;;;5032125;28;20036;-56
2023/09/12 10:51:45;;;;;;;10.60;9.00;;;;;;;;;;5031392;28;20434;-55
2023/09/12 10:54:15;;;;;;;10.00;8.90;;;;;;;;;;5031794;28;20521;-54
2023/09/12 10:56:41;;;;;;;10.65;8.70;;;;;;;;;;5032066;28;20068;-55
2023/09/12 10:59:06;;;;;;;11.00;8.85;;;;;;;;;;5032035;28;20069;-55
2023/09/12 11:01:45;;;;;;;10.48;8.82;;;;;;;;;;5031250;28;20026;-54
2023/09/12 11:04:19;;;;;;;10.93;8.82;;;;;;;;;;5031231;28;20035;-58
2023/09/12 11:06:45;;;;;;;9.50;8.10;;;;;;;;;;5031780;28;20067;-55
2023/09/12 11:09:14;;;;;;;8.70;7.30;;;;;;;;;;5030064;28;20025;-56
2023/09/12 11:11:44;;;;;;;9.55;6.88;;;;;;;;;;5031381;28;20108;-56
2023/09/12 11:14:10;;;;;;;9.75;6.90;;;;;;;;;;5031786;28;20079;-52
2023/09/12 11:16:35;;;;;;;8.25;6.40;;;;;;;;;;5030977;28;20054;-53
2023/09/12 11:19:20;;;;;;;7.90;6.38;;;;;;;;;;5032031;28;20025;-54
2023/09/12 11:21:53;;;;;;;7.57;6.38;;;;;;;;;;5030161;28;20030;-55
2023/09/12 11:24:20;;;;;;;6.82;5.63;;;;;;;;;;5031080;28;20457;-51
2023/09/12 11:27:00;;;;;;;7.95;5.43;;;;;;;;;;5030583;28;20034;-58
2023/09/12 11:29:36;;;;;;;7.10;5.15;;;;;;;;;;5031156;28;20080;-55
2023/09/12 11:32:03;;;;;;;8.65;6.07;;;;;;;;;;5031922;28;20033;-55
2023/09/12 11:34:33;;;;;;;7.22;5.97;;;;;;;;;;5030985;28;20041;-55
2023/09/12 11:37:00;;;;;;;6.90;5.22;;;;;;;;;;5033186;28;20462;-56
2023/09/12 11:39:29;;;;;;;6.30;5.40;;;;;;;;;;5034635;28;20038;-57
2023/09/12 11:41:55;;;;;;;7.00;5.30;;;;;;;;;;5035137;28;20112;-56
2023/09/12 11:44:21;;;;;;;7.78;5.18;;;;;;;;;;5034378;28;20553;-57
2023/09/12 11:46:49;;;;;;;6.97;5.13;;;;;;;;;;5033806;28;20116;-56
2023/09/12 11:49:15;;;;;;;7.10;5.20;;;;;;;;;;5034271;28;20030;-57
2023/09/12 11:51:52;;;;;;;7.70;5.40;;;;;;;;;;5033419;28;20584;-57
2023/09/12 11:54:20;;;;;;;6.70;5.20;;;;;;;;;;5034497;28;20041;-57
2023/09/12 11:56:49;;;;;;;7.30;5.43;;;;;;;;;;5034899;28;20068;-55
2023/09/12 11:59:18;;;;;;;6.93;4.97;;;;;;;;;;5034314;28;20053;-59
2023/09/12 12:01:44;;;;;;;7.03;5.13;;;;;;;;;;5034618;28;20466;-58
2023/09/12 12:04:10;;;;;;;7.28;5.20;;;;;;;;;;5034885;28;20032;-57
2023/09/12 12:06:35;;;;;;;5.78;5.00;;;;;;;;;;5034180;28;20056;-56
2023/09/12 12:09:02;;;;;;;6.05;4.80;;;;;;;;;;5034394;28;20033;-55
2023/09/12 12:11:28;;;;;;;8.82;5.03;;;;;;;;;;5033697;28;20029;-57
2023/09/12 12:13:53;;;;;;;6.78;4.38;;;;;;;;;;5034451;28;20065;-58
2023/09/12 12:16:19;;;;;;;6.38;4.10;;;;;;;;;;5033681;28;20049;-57
2023/09/12 12:18:45;;;;;;;6.05;4.15;;;;;;;;;;5034387;28;20033;-56
2023/09/12 12:21:10;;;;;;;5.15;4.20;;;;;;;;;;5034338;28;20040;-57
2023/09/12 12:23:38;;;;;;;5.95;4.35;;;;;;;;;;5033595;28;20042;-58
2023/09/12 12:26:10;;;;;;;5.97;4.40;;;;;;;;;;5034303;28;20029;-55
2023/09/12 12:28:36;;;;;;;5.18;4.30;;;;;;;;;;5033642;28;20029;-58
2023/09/12 12:31:01;;;;;;;5.63;4.20;;;;;;;;;;5034155;28;20036;-56
2023/09/12 12:33:27;;;;;;;5.55;4.45;;;;;;;;;;5033626;28;20029;-56
2023/09/12 12:36:07;;;;;;;4.53;3.67;;;;;;;;;;5032867;28;20469;-57
2023/09/12 12:38:38;;;;;;;5.00;4.13;;;;;;;;;;5033579;28;20033;-57
2023/09/12 12:41:04;;;;;;;6.90;4.03;;;;;;;;;;5032647;28;20037;-56
2023/09/12 12:43:30;;;;;;;4.82;4.32;;;;;;;;;;5033387;28;20033;-57
2023/09/12 12:45:57;;;;;;;5.63;4.15;;;;;;;;;;5034328;28;20037;-57
2023/09/12 12:48:33;;;;;;;5.15;4.38;;;;;;;;;;5031941;28;20069;-57
2023/09/12 12:51:11;;;;;;;5.00;4.40;;;;;;;;;;5033878;28;20037;-56
2023/09/12 12:53:41;;;;;;;6.38;4.50;;;;;;;;;;5031998;28;20166;-56
2023/09/12 12:56:07;;;;;;;8.45;4.57;;;;;;;;;;5033804;28;20095;-57
2023/09/12 12:58:34;;;;;;;5.90;4.55;;;;;;;;;;5033462;28;20033;-58
2023/09/12 13:01:00;;;;;;;6.15;5.10;;;;;;;;;;5032328;28;20025;-57
2023/09/12 13:03:26;;;;;;;5.78;4.30;;;;;;;;;;5032557;28;20087;-57
2023/09/12 13:05:51;;;;;;;6.10;4.93;;;;;;;;;;5032045;28;20128;-56
2023/09/12 13:08:17;;;;;;;7.68;5.38;;;;;;;;;;5033329;28;20029;-57
2023/09/12 13:10:42;;;;;;;6.25;5.10;;;;;;;;;;5032569;28;20030;-56
2023/09/12 13:13:08;;;;;;;6.60;4.65;;;;;;;;;;5032043;28;20072;-57
2023/09/12 13:15:33;;;;;;;6.57;4.28;;;;;;;;;;5032492;28;20066;-58
2023/09/12 13:17:59;;;;;;;6.20;4.97;;;;;;;;;;5032319;28;20132;-58
2023/09/12 13:20:24;;;;;;;5.35;4.43;;;;;;;;;;5032438;28;20381;-56
2023/09/12 13:22:50;;;;;;;6.50;4.40;;;;;;;;;;5032845;28;20074;-57
2023/09/12 13:25:15;;;;;;;7.78;4.22;;;;;;;;;;5032799;28;20107;-58
2023/09/12 13:27:41;;;;;;;5.82;4.07;;;;;;;;;;5032404;28;20461;-58
2023/09/12 13:30:07;;;;;;;7.22;4.90;;;;;;;;;;5032825;28;20029;-58
2023/09/12 13:32:33;;;;;;;6.72;4.80;;;;;;;;;;5032454;28;20075;-59
2023/09/12 13:34:58;;;;;;;5.45;4.82;;;;;;;;;;5031635;28;20037;-59
2023/09/12 13:37:26;;;;;;;6.30;4.50;;;;;;;;;;5014749;28;20025;-58
2023/09/12 13:39:52;;;;;;;6.78;4.45;;;;;;;;;;5031740;28;20068;-58
2023/09/12 13:42:21;;;;;;;5.95;4.78;;;;;;;;;;5032560;28;20030;-56
2023/09/12 13:44:49;;;;;;;6.15;4.47;;;;;;;;;;5032810;28;20026;-56
2023/09/12 13:47:21;;;;;;;8.23;4.97;;;;;;;;;;5032899;28;20033;-57
2023/09/12 13:49:48;;;;;;;7.13;4.75;;;;;;;;;;5032942;28;20021;-59
2023/09/12 13:52:14;;;;;;;6.18;4.55;;;;;;;;;;5032280;28;20033;-57
2023/09/12 13:54:40;;;;;;;7.03;4.68;;;;;;;;;;5031750;28;20183;-59
2023/09/12 13:57:05;;;;;;;5.28;4.10;;;;;;;;;;5032734;28;20040;-55
2023/09/12 13:59:31;;;;;;;5.35;4.43;;;;;;;;;;5031652;28;20042;-58
2023/09/12 14:01:56;;;;;;;5.32;4.63;;;;;;;;;;5032524;28;20124;-55
2023/09/12 14:04:22;;;;;;;7.35;4.50;;;;;;;;;;5031813;28;20108;-58
2023/09/12 14:06:47;;;;;;;5.25;4.00;;;;;;;;;;5032208;28;20030;-57
2023/09/12 14:09:13;;;;;;;6.07;4.38;;;;;;;;;;5032659;28;20038;-57
2023/09/12 14:11:38;;;;;;;6.25;4.20;;;;;;;;;;5031622;28;20068;-57
2023/09/12 14:14:04;;;;;;;5.32;4.22;;;;;;;;;;5032608;28;20069;-57
2023/09/12 14:16:30;;;;;;;6.10;4.40;;;;;;;;;;5030085;28;20076;-57
2023/09/12 14:18:55;;;;;;;5.85;4.85;;;;;;;;;;5032523;28;20033;-57
2023/09/12 14:21:21;;;;;;;5.90;5.03;;;;;;;;;;5030636;28;20045;-56
2023/09/12 14:23:46;;;;;;;5.63;4.90;;;;;;;;;;5031115;28;20025;-57
2023/09/12 14:26:12;;;;;;;7.35;4.80;;;;;;;;;;5031025;28;20029;-57